sensor_id;sensor_type;location;lat;lon;timestamp;temperature;humidity
23120;DHT22;11729;50.836;4.330;2024-01-15T00:00:43;3.50;99.90
23120;DHT22;11729;50.836;4.330;2024-01-15T00:03:09;3.40;99.90
23120;DHT22;11729;50.836;4.330;2024-01-15T00:05:36;3.40;99.90
23120;DHT22;11729;50.836;4.330;2024-01-15T00:08:02;3.40;99.90
23120;DHT22;11729;50.836;4.330;2024-01-15T00:10:27;3.40;99.90
23120;DHT22;11729;50.836;4.330;2024-01-15T00:12:54;3.50;99.90
23120;DHT22;11729;50.836;4.330;2024-01-15T00:15:19;3.50;99.90
23120;DHT22;11729;50.836;4.330;2024-01-15T00:17:46;3.60;99.90
23120;DHT22;11729;50.836;4.330;2024-01-15T00:20:12;3.50;99.90
23120;DHT22;11729;50.836;4.330;2024-01-15T00:22:39;3.50;99.90
23120;DHT22;11729;50.836;4.330;2024-01-15T00:25:05;3.50;99.90
23120;DHT22;11729;50.836;4.330;2024-01-15T00:27:30;3.30;99.90
23120;DHT22;11729;50.836;4.330;2024-01-15T00:29:57;3.30;99.90
23120;DHT22;11729;50.836;4.330;2024-01-15T00:32:22;3.40;99.90
23120;DHT22;11729;50.836;4.330;2024-01-15T00:34:48;3.50;99.90
23120;DHT22;11729;50.836;4.330;2024-01-15T00:37:14;3.60;99.90
23120;DHT22;11729;50.836;4.330;2024-01-15T00:39:39;3.50;99.90
23120;DHT22;11729;50.836;4.330;2024-01-15T00:42:05;3.60;99.90
23120;DHT22;11729;50.836;4.330;2024-01-15T00:44:30;3.60;99.90
23120;DHT22;11729;50.836;4.330;2024-01-15T00:46:57;3.50;99.90
23120;DHT22;11729;50.836;4.330;2024-01-15T00:49:24;3.50;99.90
23120;DHT22;11729;50.836;4.330;2024-01-15T00:51:50;3.50;99.90
23120;DHT22;11729;50.836;4.330;2024-01-15T00:54:15;3.50;99.90
23120;DHT22;11729;50.836;4.330;2024-01-15T00:56:41;3.40;99.90
23120;DHT22;11729;50.836;4.330;2024-01-15T00:59:06;3.80;99.90
23120;DHT22;11729;50.836;4.330;2024-01-15T01:01:34;4.00;99.90
23120;DHT22;11729;50.836;4.330;2024-01-15T01:03:59;4.00;99.90
23120;DHT22;11729;50.836;4.330;2024-01-15T01:06:26;3.80;99.90
23120;DHT22;11729;50.836;4.330;2024-01-15T01:08:51;3.70;99.90
23120;DHT22;11729;50.836;4.330;2024-01-15T01:11:17;3.70;99.90
23120;DHT22;11729;50.836;4.330;2024-01-15T01:13:43;3.70;99.90
23120;DHT22;11729;50.836;4.330;2024-01-15T01:16:08;4.00;99.90
23120;DHT22;11729;50.836;4.330;2024-01-15T01:18:34;4.00;99.90
23120;DHT22;11729;50.836;4.330;2024-01-15T01:21:00;4.10;99.90
23120;DHT22;11729;50.836;4.330;2024-01-15T01:23:26;3.90;99.90
23120;DHT22;11729;50.836;4.330;2024-01-15T01:25:51;3.90;99.90
23120;DHT22;11729;50.836;4.330;2024-01-15T01:28:17;3.80;99.90
23120;DHT22;11729;50.836;4.330;2024-01-15T01:30:42;3.80;99.90
23120;DHT22;11729;50.836;4.330;2024-01-15T01:33:09;3.90;99.90
23120;DHT22;11729;50.836;4.330;2024-01-15T01:35:35;3.90;99.90
23120;DHT22;11729;50.836;4.330;2024-01-15T01:38:01;4.00;99.90
23120;DHT22;11729;50.836;4.330;2024-01-15T01:40:27;4.00;99.90
23120;DHT22;11729;50.836;4.330;2024-01-15T01:42:52;4.10;99.90
23120;DHT22;11729;50.836;4.330;2024-01-15T01:45:18;4.00;99.90
23120;DHT22;11729;50.836;4.330;2024-01-15T01:47:44;4.00;99.90
23120;DHT22;11729;50.836;4.330;2024-01-15T01:50:09;3.90;99.90
23120;DHT22;11729;50.836;4.330;2024-01-15T01:52:36;4.00;99.90
23120;DHT22;11729;50.836;4.330;2024-01-15T01:55:03;4.10;99.90
23120;DHT22;11729;50.836;4.330;2024-01-15T01:57:30;4.00;99.90
23120;DHT22;11729;50.836;4.330;2024-01-15T01:59:56;4.00;99.90
23120;DHT22;11729;50.836;4.330;2024-01-15T02:02:24;3.80;99.90
23120;DHT22;11729;50.836;4.330;2024-01-15T02:04:50;3.90;99.90
23120;DHT22;11729;50.836;4.330;2024-01-15T02:07:16;4.00;99.90
23120;DHT22;11729;50.836;4.330;2024-01-15T02:09:44;4.00;99.90
23120;DHT22;11729;50.836;4.330;2024-01-15T02:12:10;3.90;99.90
23120;DHT22;11729;50.836;4.330;2024-01-15T02:14:36;3.80;99.90
23120;DHT22;11729;50.836;4.330;2024-01-15T02:17:02;3.80;99.90
23120;DHT22;11729;50.836;4.330;2024-01-15T02:19:27;3.90;99.90
23120;DHT22;11729;50.836;4.330;2024-01-15T02:21:53;3.90;99.90
23120;DHT22;11729;50.836;4.330;2024-01-15T02:24:20;4.00;99.90
23120;DHT22;11729;50.836;4.330;2024-01-15T02:26:46;4.00;99.90
23120;DHT22;11729;50.836;4.330;2024-01-15T02:29:13;4.00;99.90
23120;DHT22;11729;50.836;4.330;2024-01-15T02:31:40;4.10;99.90
23120;DHT22;11729;50.836;4.330;2024-01-15T02:34:06;4.10;99.90
23120;DHT22;11729;50.836;4.330;2024-01-15T02:36:32;4.00;99.90
23120;DHT22;11729;50.836;4.330;2024-01-15T02:38:57;3.90;99.90
23120;DHT22;11729;50.836;4.330;2024-01-15T02:41:23;3.90;99.90
23120;DHT22;11729;50.836;4.330;2024-01-15T02:43:50;3.90;99.90
23120;DHT22;11729;50.836;4.330;2024-01-15T02:46:16;3.90;99.90
23120;DHT22;11729;50.836;4.330;2024-01-15T02:48:43;3.90;99.90
23120;DHT22;11729;50.836;4.330;2024-01-15T02:51:09;3.90;99.90
23120;DHT22;11729;50.836;4.330;2024-01-15T02:53:36;3.80;99.90
23120;DHT22;11729;50.836;4.330;2024-01-15T02:56:01;3.80;99.90
23120;DHT22;11729;50.836;4.330;2024-01-15T02:58:27;3.80;99.90
23120;DHT22;11729;50.836;4.330;2024-01-15T03:00:53;3.70;99.90
23120;DHT22;11729;50.836;4.330;2024-01-15T03:03:19;3.90;99.90
23120;DHT22;11729;50.836;4.330;2024-01-15T03:05:46;3.90;99.90
23120;DHT22;11729;50.836;4.330;2024-01-15T03:08:12;3.90;99.90
23120;DHT22;11729;50.836;4.330;2024-01-15T03:10:38;3.90;99.90
23120;DHT22;11729;50.836;4.330;2024-01-15T03:13:04;3.90;99.90
23120;DHT22;11729;50.836;4.330;2024-01-15T03:15:29;3.90;99.90
23120;DHT22;11729;50.836;4.330;2024-01-15T03:17:57;3.90;99.90
23120;DHT22;11729;50.836;4.330;2024-01-15T03:20:22;3.80;99.90
23120;DHT22;11729;50.836;4.330;2024-01-15T03:22:48;3.70;99.90
23120;DHT22;11729;50.836;4.330;2024-01-15T03:25:14;3.70;99.90
23120;DHT22;11729;50.836;4.330;2024-01-15T03:27:40;3.70;99.90
23120;DHT22;11729;50.836;4.330;2024-01-15T03:30:06;3.60;99.90
23120;DHT22;11729;50.836;4.330;2024-01-15T03:32:32;3.60;99.90
23120;DHT22;11729;50.836;4.330;2024-01-15T03:34:57;3.60;99.90
23120;DHT22;11729;50.836;4.330;2024-01-15T03:37:23;3.60;99.90
23120;DHT22;11729;50.836;4.330;2024-01-15T03:39:48;3.70;99.90
23120;DHT22;11729;50.836;4.330;2024-01-15T03:42:14;3.70;99.90
23120;DHT22;11729;50.836;4.330;2024-01-15T03:44:40;3.80;99.90
23120;DHT22;11729;50.836;4.330;2024-01-15T03:47:05;3.80;99.90
23120;DHT22;11729;50.836;4.330;2024-01-15T03:49:31;3.70;99.90
23120;DHT22;11729;50.836;4.330;2024-01-15T03:51:57;3.80;99.90
23120;DHT22;11729;50.836;4.330;2024-01-15T03:54:22;3.90;99.90
23120;DHT22;11729;50.836;4.330;2024-01-15T03:56:48;3.80;99.90
23120;DHT22;11729;50.836;4.330;2024-01-15T03:59:13;3.80;99.90
23120;DHT22;11729;50.836;4.330;2024-01-15T04:01:39;3.80;99.90
23120;DHT22;11729;50.836;4.330;2024-01-15T04:04:04;3.70;99.90
23120;DHT22;11729;50.836;4.330;2024-01-15T04:06:30;3.60;99.90
23120;DHT22;11729;50.836;4.330;2024-01-15T04:08:55;3.60;99.90
23120;DHT22;11729;50.836;4.330;2024-01-15T04:11:21;3.50;99.90
23120;DHT22;11729;50.836;4.330;2024-01-15T04:13:47;3.50;99.90
23120;DHT22;11729;50.836;4.330;2024-01-15T04:16:13;3.50;99.90
23120;DHT22;11729;50.836;4.330;2024-01-15T04:18:39;3.50;99.90
23120;DHT22;11729;50.836;4.330;2024-01-15T04:21:05;3.40;99.90
23120;DHT22;11729;50.836;4.330;2024-01-15T04:23:32;3.40;99.90
23120;DHT22;11729;50.836;4.330;2024-01-15T04:25:59;3.50;99.90
23120;DHT22;11729;50.836;4.330;2024-01-15T04:28:24;3.50;99.90
23120;DHT22;11729;50.836;4.330;2024-01-15T04:30:50;3.60;99.90
23120;DHT22;11729;50.836;4.330;2024-01-15T04:33:16;3.60;99.90
23120;DHT22;11729;50.836;4.330;2024-01-15T04:35:41;3.60;99.90
23120;DHT22;11729;50.836;4.330;2024-01-15T04:38:07;3.70;99.90
23120;DHT22;11729;50.836;4.330;2024-01-15T04:40:33;3.60;99.90
23120;DHT22;11729;50.836;4.330;2024-01-15T04:42:59;3.70;99.90
23120;DHT22;11729;50.836;4.330;2024-01-15T04:45:26;3.70;99.90
23120;DHT22;11729;50.836;4.330;2024-01-15T04:47:54;3.80;99.90
23120;DHT22;11729;50.836;4.330;2024-01-15T04:50:22;3.80;99.90
23120;DHT22;11729;50.836;4.330;2024-01-15T04:52:47;3.80;99.90
23120;DHT22;11729;50.836;4.330;2024-01-15T04:55:13;3.80;99.90
23120;DHT22;11729;50.836;4.330;2024-01-15T04:57:40;3.70;99.90
23120;DHT22;11729;50.836;4.330;2024-01-15T05:00:06;3.80;99.90
23120;DHT22;11729;50.836;4.330;2024-01-15T05:02:32;3.70;99.90
23120;DHT22;11729;50.836;4.330;2024-01-15T05:04:58;3.70;99.90
23120;DHT22;11729;50.836;4.330;2024-01-15T05:07:25;3.70;99.90
23120;DHT22;11729;50.836;4.330;2024-01-15T05:09:52;3.60;99.90
23120;DHT22;11729;50.836;4.330;2024-01-15T05:12:19;3.60;99.90
23120;DHT22;11729;50.836;4.330;2024-01-15T05:14:45;3.70;99.90
23120;DHT22;11729;50.836;4.330;2024-01-15T05:17:12;3.90;99.90
23120;DHT22;11729;50.836;4.330;2024-01-15T05:19:37;3.70;99.90
23120;DHT22;11729;50.836;4.330;2024-01-15T05:22:03;3.50;99.90
23120;DHT22;11729;50.836;4.330;2024-01-15T05:24:30;3.20;99.90
23120;DHT22;11729;50.836;4.330;2024-01-15T05:26:55;3.10;99.90
23120;DHT22;11729;50.836;4.330;2024-01-15T05:29:21;3.00;99.90
23120;DHT22;11729;50.836;4.330;2024-01-15T05:31:47;3.00;99.90
23120;DHT22;11729;50.836;4.330;2024-01-15T05:34:13;3.10;99.90
23120;DHT22;11729;50.836;4.330;2024-01-15T05:36:38;3.10;99.90
23120;DHT22;11729;50.836;4.330;2024-01-15T05:39:04;2.90;99.90
23120;DHT22;11729;50.836;4.330;2024-01-15T05:41:30;3.00;99.90
23120;DHT22;11729;50.836;4.330;2024-01-15T05:43:56;3.20;99.90
23120;DHT22;11729;50.836;4.330;2024-01-15T05:46:23;3.10;99.90
23120;DHT22;11729;50.836;4.330;2024-01-15T05:48:49;3.10;99.90
23120;DHT22;11729;50.836;4.330;2024-01-15T05:51:14;3.10;99.90
23120;DHT22;11729;50.836;4.330;2024-01-15T05:53:40;3.20;99.90
23120;DHT22;11729;50.836;4.330;2024-01-15T05:56:09;3.00;99.90
23120;DHT22;11729;50.836;4.330;2024-01-15T05:58:35;3.10;99.90
23120;DHT22;11729;50.836;4.330;2024-01-15T06:01:01;3.00;99.90
23120;DHT22;11729;50.836;4.330;2024-01-15T06:03:27;3.20;99.90
23120;DHT22;11729;50.836;4.330;2024-01-15T06:05:52;3.30;99.90
23120;DHT22;11729;50.836;4.330;2024-01-15T06:08:18;3.30;99.90
23120;DHT22;11729;50.836;4.330;2024-01-15T06:10:44;3.40;99.90
23120;DHT22;11729;50.836;4.330;2024-01-15T06:13:09;3.40;99.90
23120;DHT22;11729;50.836;4.330;2024-01-15T06:15:36;3.40;99.90
23120;DHT22;11729;50.836;4.330;2024-01-15T06:18:02;3.20;99.90
23120;DHT22;11729;50.836;4.330;2024-01-15T06:20:28;3.10;99.90
23120;DHT22;11729;50.836;4.330;2024-01-15T06:22:54;3.00;99.90
23120;DHT22;11729;50.836;4.330;2024-01-15T06:25:19;2.90;99.90
23120;DHT22;11729;50.836;4.330;2024-01-15T06:27:45;2.90;99.90
23120;DHT22;11729;50.836;4.330;2024-01-15T06:30:11;2.80;99.90
23120;DHT22;11729;50.836;4.330;2024-01-15T06:32:37;2.80;99.90
23120;DHT22;11729;50.836;4.330;2024-01-15T06:35:02;2.90;99.90
23120;DHT22;11729;50.836;4.330;2024-01-15T06:37:28;2.80;99.90
23120;DHT22;11729;50.836;4.330;2024-01-15T06:39:58;2.70;99.90
23120;DHT22;11729;50.836;4.330;2024-01-15T06:42:24;2.70;99.90
23120;DHT22;11729;50.836;4.330;2024-01-15T06:44:50;2.70;99.90
23120;DHT22;11729;50.836;4.330;2024-01-15T06:47:15;2.80;99.90
23120;DHT22;11729;50.836;4.330;2024-01-15T06:49:43;2.70;99.90
23120;DHT22;11729;50.836;4.330;2024-01-15T06:52:08;2.70;99.90
23120;DHT22;11729;50.836;4.330;2024-01-15T06:54:34;2.80;99.90
23120;DHT22;11729;50.836;4.330;2024-01-15T06:56:59;2.70;99.90
23120;DHT22;11729;50.836;4.330;2024-01-15T06:59:27;2.60;99.90
23120;DHT22;11729;50.836;4.330;2024-01-15T07:01:52;2.60;99.90
23120;DHT22;11729;50.836;4.330;2024-01-15T07:04:21;2.60;99.90
23120;DHT22;11729;50.836;4.330;2024-01-15T07:06:47;2.50;99.90
23120;DHT22;11729;50.836;4.330;2024-01-15T07:09:14;2.40;99.90
23120;DHT22;11729;50.836;4.330;2024-01-15T07:11:44;2.40;99.90
23120;DHT22;11729;50.836;4.330;2024-01-15T07:14:12;2.50;99.90
23120;DHT22;11729;50.836;4.330;2024-01-15T07:16:40;2.40;99.90
23120;DHT22;11729;50.836;4.330;2024-01-15T07:19:09;2.30;99.90
23120;DHT22;11729;50.836;4.330;2024-01-15T07:21:36;2.30;99.90
23120;DHT22;11729;50.836;4.330;2024-01-15T07:24:02;2.30;99.90
23120;DHT22;11729;50.836;4.330;2024-01-15T07:26:29;2.20;99.90
23120;DHT22;11729;50.836;4.330;2024-01-15T07:28:55;2.20;99.90
23120;DHT22;11729;50.836;4.330;2024-01-15T07:31:22;2.20;99.90
23120;DHT22;11729;50.836;4.330;2024-01-15T07:33:47;2.20;99.90
23120;DHT22;11729;50.836;4.330;2024-01-15T07:36:14;2.30;99.90
23120;DHT22;11729;50.836;4.330;2024-01-15T07:38:42;2.30;99.90
23120;DHT22;11729;50.836;4.330;2024-01-15T07:41:08;2.40;99.90
23120;DHT22;11729;50.836;4.330;2024-01-15T07:43:35;2.30;99.90
23120;DHT22;11729;50.836;4.330;2024-01-15T07:46:01;2.30;99.90
23120;DHT22;11729;50.836;4.330;2024-01-15T07:48:27;2.30;99.90
23120;DHT22;11729;50.836;4.330;2024-01-15T07:50:53;2.30;99.90
23120;DHT22;11729;50.836;4.330;2024-01-15T07:53:18;2.40;99.90
23120;DHT22;11729;50.836;4.330;2024-01-15T07:55:45;2.40;99.90
23120;DHT22;11729;50.836;4.330;2024-01-15T07:58:13;2.40;99.90
23120;DHT22;11729;50.836;4.330;2024-01-15T08:00:39;2.50;99.90
23120;DHT22;11729;50.836;4.330;2024-01-15T08:03:05;2.50;99.90
23120;DHT22;11729;50.836;4.330;2024-01-15T08:05:31;2.40;99.90
23120;DHT22;11729;50.836;4.330;2024-01-15T08:07:58;2.50;99.90
23120;DHT22;11729;50.836;4.330;2024-01-15T08:10:23;2.60;99.90
23120;DHT22;11729;50.836;4.330;2024-01-15T08:12:50;2.60;99.90
23120;DHT22;11729;50.836;4.330;2024-01-15T08:15:20;2.60;99.90
23120;DHT22;11729;50.836;4.330;2024-01-15T08:17:45;2.60;99.90
23120;DHT22;11729;50.836;4.330;2024-01-15T08:20:11;2.70;99.90
23120;DHT22;11729;50.836;4.330;2024-01-15T08:22:38;2.80;99.90
23120;DHT22;11729;50.836;4.330;2024-01-15T08:25:04;2.90;99.90
23120;DHT22;11729;50.836;4.330;2024-01-15T08:27:30;2.80;99.90
23120;DHT22;11729;50.836;4.330;2024-01-15T08:29:56;2.80;99.90
23120;DHT22;11729;50.836;4.330;2024-01-15T08:32:21;2.90;99.90
23120;DHT22;11729;50.836;4.330;2024-01-15T08:34:47;2.80;99.90
23120;DHT22;11729;50.836;4.330;2024-01-15T08:37:15;2.90;99.90
23120;DHT22;11729;50.836;4.330;2024-01-15T08:39:42;3.00;99.90
23120;DHT22;11729;50.836;4.330;2024-01-15T08:42:08;3.20;99.90
23120;DHT22;11729;50.836;4.330;2024-01-15T08:44:34;3.20;99.90
23120;DHT22;11729;50.836;4.330;2024-01-15T08:47:01;3.20;99.90
23120;DHT22;11729;50.836;4.330;2024-01-15T08:49:28;3.40;99.90
23120;DHT22;11729;50.836;4.330;2024-01-15T08:51:53;3.30;99.90
23120;DHT22;11729;50.836;4.330;2024-01-15T08:54:19;3.20;99.90
23120;DHT22;11729;50.836;4.330;2024-01-15T08:56:45;3.10;99.90
23120;DHT22;11729;50.836;4.330;2024-01-15T08:59:10;3.20;99.90
23120;DHT22;11729;50.836;4.330;2024-01-15T09:01:38;3.30;99.90
23120;DHT22;11729;50.836;4.330;2024-01-15T09:04:04;3.40;99.90
23120;DHT22;11729;50.836;4.330;2024-01-15T09:06:30;3.60;99.90
23120;DHT22;11729;50.836;4.330;2024-01-15T09:08:56;3.50;99.90
23120;DHT22;11729;50.836;4.330;2024-01-15T09:11:21;3.80;99.90
23120;DHT22;11729;50.836;4.330;2024-01-15T09:13:47;3.70;99.90
23120;DHT22;11729;50.836;4.330;2024-01-15T09:16:13;4.00;99.90
23120;DHT22;11729;50.836;4.330;2024-01-15T09:18:39;4.00;99.90
23120;DHT22;11729;50.836;4.330;2024-01-15T09:21:06;3.90;99.90
23120;DHT22;11729;50.836;4.330;2024-01-15T09:23:33;3.90;99.90
23120;DHT22;11729;50.836;4.330;2024-01-15T09:25:59;3.90;99.90
23120;DHT22;11729;50.836;4.330;2024-01-15T09:28:27;3.70;99.90
23120;DHT22;11729;50.836;4.330;2024-01-15T09:30:53;3.60;99.90
23120;DHT22;11729;50.836;4.330;2024-01-15T09:33:18;3.50;99.90
23120;DHT22;11729;50.836;4.330;2024-01-15T09:35:45;3.50;99.90
23120;DHT22;11729;50.836;4.330;2024-01-15T09:38:12;3.50;99.90
23120;DHT22;11729;50.836;4.330;2024-01-15T09:40:38;3.50;99.90
23120;DHT22;11729;50.836;4.330;2024-01-15T09:43:08;3.60;99.90
23120;DHT22;11729;50.836;4.330;2024-01-15T09:45:34;3.80;99.90
23120;DHT22;11729;50.836;4.330;2024-01-15T09:48:01;3.60;99.90
23120;DHT22;11729;50.836;4.330;2024-01-15T09:50:26;3.60;99.90
23120;DHT22;11729;50.836;4.330;2024-01-15T09:52:54;3.80;99.90
23120;DHT22;11729;50.836;4.330;2024-01-15T09:55:20;3.80;99.90
23120;DHT22;11729;50.836;4.330;2024-01-15T09:57:49;3.80;99.90
23120;DHT22;11729;50.836;4.330;2024-01-15T10:00:18;3.90;99.90
23120;DHT22;11729;50.836;4.330;2024-01-15T10:02:44;3.90;99.90
23120;DHT22;11729;50.836;4.330;2024-01-15T10:05:11;4.00;99.90
23120;DHT22;11729;50.836;4.330;2024-01-15T10:07:37;4.00;99.90
23120;DHT22;11729;50.836;4.330;2024-01-15T10:10:05;4.20;99.90
23120;DHT22;11729;50.836;4.330;2024-01-15T10:12:31;4.10;99.90
23120;DHT22;11729;50.836;4.330;2024-01-15T10:14:57;4.10;99.90
23120;DHT22;11729;50.836;4.330;2024-01-15T10:17:24;4.40;99.90
23120;DHT22;11729;50.836;4.330;2024-01-15T10:19:50;4.50;99.90
23120;DHT22;11729;50.836;4.330;2024-01-15T10:22:15;4.40;99.90
23120;DHT22;11729;50.836;4.330;2024-01-15T10:24:41;4.30;99.90
23120;DHT22;11729;50.836;4.330;2024-01-15T10:27:10;4.20;99.90
23120;DHT22;11729;50.836;4.330;2024-01-15T10:29:36;4.30;99.90
23120;DHT22;11729;50.836;4.330;2024-01-15T10:32:11;4.50;99.90
23120;DHT22;11729;50.836;4.330;2024-01-15T10:34:40;4.50;99.90
23120;DHT22;11729;50.836;4.330;2024-01-15T10:37:09;4.80;99.90
23120;DHT22;11729;50.836;4.330;2024-01-15T10:39:36;4.60;99.90
23120;DHT22;11729;50.836;4.330;2024-01-15T10:42:04;4.60;99.90
23120;DHT22;11729;50.836;4.330;2024-01-15T10:44:30;4.40;99.90
23120;DHT22;11729;50.836;4.330;2024-01-15T10:46:56;4.30;99.90
23120;DHT22;11729;50.836;4.330;2024-01-15T10:49:22;4.40;99.90
23120;DHT22;11729;50.836;4.330;2024-01-15T10:51:52;4.50;99.90
23120;DHT22;11729;50.836;4.330;2024-01-15T10:54:19;4.70;99.90
23120;DHT22;11729;50.836;4.330;2024-01-15T10:56:46;4.60;99.90
23120;DHT22;11729;50.836;4.330;2024-01-15T10:59:13;4.60;99.90
23120;DHT22;11729;50.836;4.330;2024-01-15T11:01:39;4.60;99.90
23120;DHT22;11729;50.836;4.330;2024-01-15T11:04:06;4.80;99.90
23120;DHT22;11729;50.836;4.330;2024-01-15T11:06:45;4.70;99.90
23120;DHT22;11729;50.836;4.330;2024-01-15T11:09:13;4.90;99.90
23120;DHT22;11729;50.836;4.330;2024-01-15T11:11:42;5.30;99.90
23120;DHT22;11729;50.836;4.330;2024-01-15T11:14:09;5.60;99.90
23120;DHT22;11729;50.836;4.330;2024-01-15T11:16:57;5.60;99.90
23120;DHT22;11729;50.836;4.330;2024-01-15T11:19:25;5.60;99.90
23120;DHT22;11729;50.836;4.330;2024-01-15T11:21:51;5.80;99.90
23120;DHT22;11729;50.836;4.330;2024-01-15T11:24:36;6.00;99.90
23120;DHT22;11729;50.836;4.330;2024-01-15T11:27:02;6.00;99.90
23120;DHT22;11729;50.836;4.330;2024-01-15T11:32:00;5.80;99.90
23120;DHT22;11729;50.836;4.330;2024-01-15T11:34:51;5.90;99.90
23120;DHT22;11729;50.836;4.330;2024-01-15T11:37:18;5.80;99.90
23120;DHT22;11729;50.836;4.330;2024-01-15T11:39:46;5.80;99.90
23120;DHT22;11729;50.836;4.330;2024-01-15T11:42:12;5.90;99.90
23120;DHT22;11729;50.836;4.330;2024-01-15T11:44:40;5.90;99.90
23120;DHT22;11729;50.836;4.330;2024-01-15T11:47:08;5.90;99.90
23120;DHT22;11729;50.836;4.330;2024-01-15T11:52:21;6.20;99.90
23120;DHT22;11729;50.836;4.330;2024-01-15T11:55:12;6.30;99.90
23120;DHT22;11729;50.836;4.330;2024-01-15T11:57:40;6.10;99.90
23120;DHT22;11729;50.836;4.330;2024-01-15T12:00:09;6.10;99.90
23120;DHT22;11729;50.836;4.330;2024-01-15T12:02:34;5.90;99.90
23120;DHT22;11729;50.836;4.330;2024-01-15T12:05:00;6.00;99.90
23120;DHT22;11729;50.836;4.330;2024-01-15T12:07:26;5.90;99.90
23120;DHT22;11729;50.836;4.330;2024-01-15T12:09:51;6.10;99.90
23120;DHT22;11729;50.836;4.330;2024-01-15T12:15:23;6.30;99.90
23120;DHT22;11729;50.836;4.330;2024-01-15T12:17:49;6.20;99.90
23120;DHT22;11729;50.836;4.330;2024-01-15T12:20:15;6.20;99.90
23120;DHT22;11729;50.836;4.330;2024-01-15T12:22:41;6.20;99.90
23120;DHT22;11729;50.836;4.330;2024-01-15T12:25:07;6.40;99.90
23120;DHT22;11729;50.836;4.330;2024-01-15T12:27:33;6.50;99.90
23120;DHT22;11729;50.836;4.330;2024-01-15T12:29:59;6.40;99.90
23120;DHT22;11729;50.836;4.330;2024-01-15T12:32:25;6.50;99.90
23120;DHT22;11729;50.836;4.330;2024-01-15T12:34:50;6.60;99.90
23120;DHT22;11729;50.836;4.330;2024-01-15T12:37:20;6.40;99.90
23120;DHT22;11729;50.836;4.330;2024-01-15T12:39:46;6.40;99.90
23120;DHT22;11729;50.836;4.330;2024-01-15T12:42:13;6.30;99.90
23120;DHT22;11729;50.836;4.330;2024-01-15T12:44:39;6.30;99.90
23120;DHT22;11729;50.836;4.330;2024-01-15T12:47:06;6.30;99.90
23120;DHT22;11729;50.836;4.330;2024-01-15T12:49:32;6.10;99.90
23120;DHT22;11729;50.836;4.330;2024-01-15T12:51:59;6.10;99.90
23120;DHT22;11729;50.836;4.330;2024-01-15T12:54:26;6.20;99.90
23120;DHT22;11729;50.836;4.330;2024-01-15T12:56:53;6.00;99.90
23120;DHT22;11729;50.836;4.330;2024-01-15T12:59:19;5.80;99.90
23120;DHT22;11729;50.836;4.330;2024-01-15T13:01:47;5.90;99.90
23120;DHT22;11729;50.836;4.330;2024-01-15T13:04:22;5.60;99.90
23120;DHT22;11729;50.836;4.330;2024-01-15T13:06:49;5.50;99.90
23120;DHT22;11729;50.836;4.330;2024-01-15T13:09:17;5.50;99.90
23120;DHT22;11729;50.836;4.330;2024-01-15T13:11:44;5.40;99.90
23120;DHT22;11729;50.836;4.330;2024-01-15T13:14:10;5.30;99.90
23120;DHT22;11729;50.836;4.330;2024-01-15T13:16:36;5.20;99.90
23120;DHT22;11729;50.836;4.330;2024-01-15T13:19:02;5.00;99.90
23120;DHT22;11729;50.836;4.330;2024-01-15T13:21:29;4.90;99.90
23120;DHT22;11729;50.836;4.330;2024-01-15T13:23:55;4.90;99.90
23120;DHT22;11729;50.836;4.330;2024-01-15T13:26:21;4.70;99.90
23120;DHT22;11729;50.836;4.330;2024-01-15T13:28:46;5.00;99.90
23120;DHT22;11729;50.836;4.330;2024-01-15T13:31:12;5.10;99.90
23120;DHT22;11729;50.836;4.330;2024-01-15T13:33:38;5.30;99.90
23120;DHT22;11729;50.836;4.330;2024-01-15T13:36:04;5.50;99.90
23120;DHT22;11729;50.836;4.330;2024-01-15T13:38:33;5.50;99.90
23120;DHT22;11729;50.836;4.330;2024-01-15T13:41:02;5.50;99.90
23120;DHT22;11729;50.836;4.330;2024-01-15T13:43:28;5.60;99.90
23120;DHT22;11729;50.836;4.330;2024-01-15T13:45:53;5.70;99.90
23120;DHT22;11729;50.836;4.330;2024-01-15T13:48:20;6.10;99.90
23120;DHT22;11729;50.836;4.330;2024-01-15T13:50:45;6.10;99.90
23120;DHT22;11729;50.836;4.330;2024-01-15T13:53:11;5.90;99.90
23120;DHT22;11729;50.836;4.330;2024-01-15T13:55:37;6.10;99.90
23120;DHT22;11729;50.836;4.330;2024-01-15T13:58:02;6.00;99.90
23120;DHT22;11729;50.836;4.330;2024-01-15T14:00:31;6.00;99.90
23120;DHT22;11729;50.836;4.330;2024-01-15T14:02:59;5.80;99.90
23120;DHT22;11729;50.836;4.330;2024-01-15T14:05:25;5.60;99.90
23120;DHT22;11729;50.836;4.330;2024-01-15T14:07:51;5.50;99.90
23120;DHT22;11729;50.836;4.330;2024-01-15T14:10:17;5.30;99.90
23120;DHT22;11729;50.836;4.330;2024-01-15T14:12:43;5.10;99.90
23120;DHT22;11729;50.836;4.330;2024-01-15T14:15:09;5.20;99.90
23120;DHT22;11729;50.836;4.330;2024-01-15T14:17:34;5.10;99.90
23120;DHT22;11729;50.836;4.330;2024-01-15T14:20:00;5.10;99.90
23120;DHT22;11729;50.836;4.330;2024-01-15T14:22:25;5.10;99.90
23120;DHT22;11729;50.836;4.330;2024-01-15T14:24:51;5.30;99.90
23120;DHT22;11729;50.836;4.330;2024-01-15T14:27:17;5.20;99.90
23120;DHT22;11729;50.836;4.330;2024-01-15T14:29:43;5.40;99.90
23120;DHT22;11729;50.836;4.330;2024-01-15T14:32:09;5.20;99.90
23120;DHT22;11729;50.836;4.330;2024-01-15T14:34:34;5.20;99.90
23120;DHT22;11729;50.836;4.330;2024-01-15T14:37:04;5.10;99.90
23120;DHT22;11729;50.836;4.330;2024-01-15T14:39:29;4.90;99.90
23120;DHT22;11729;50.836;4.330;2024-01-15T14:41:57;4.90;99.90
23120;DHT22;11729;50.836;4.330;2024-01-15T14:44:22;4.60;99.90
23120;DHT22;11729;50.836;4.330;2024-01-15T14:46:49;4.40;99.90
23120;DHT22;11729;50.836;4.330;2024-01-15T14:49:15;4.50;99.90
23120;DHT22;11729;50.836;4.330;2024-01-15T14:51:43;4.30;99.90
23120;DHT22;11729;50.836;4.330;2024-01-15T14:54:10;4.10;99.90
23120;DHT22;11729;50.836;4.330;2024-01-15T14:56:35;3.90;99.90
23120;DHT22;11729;50.836;4.330;2024-01-15T14:59:02;3.90;99.90
23120;DHT22;11729;50.836;4.330;2024-01-15T15:01:28;4.10;99.90
23120;DHT22;11729;50.836;4.330;2024-01-15T15:03:53;3.90;99.90
23120;DHT22;11729;50.836;4.330;2024-01-15T15:06:19;3.60;99.90
23120;DHT22;11729;50.836;4.330;2024-01-15T15:08:46;3.40;99.90
23120;DHT22;11729;50.836;4.330;2024-01-15T15:11:12;3.30;99.90
23120;DHT22;11729;50.836;4.330;2024-01-15T15:13:37;3.40;99.90
23120;DHT22;11729;50.836;4.330;2024-01-15T15:16:03;3.40;99.90
23120;DHT22;11729;50.836;4.330;2024-01-15T15:18:29;3.20;99.90
23120;DHT22;11729;50.836;4.330;2024-01-15T15:20:55;3.20;99.90
23120;DHT22;11729;50.836;4.330;2024-01-15T15:23:21;3.30;99.90
23120;DHT22;11729;50.836;4.330;2024-01-15T15:25:47;3.20;99.90
23120;DHT22;11729;50.836;4.330;2024-01-15T15:28:12;3.20;99.90
23120;DHT22;11729;50.836;4.330;2024-01-15T15:30:40;3.20;99.90
23120;DHT22;11729;50.836;4.330;2024-01-15T15:33:05;3.10;99.90
23120;DHT22;11729;50.836;4.330;2024-01-15T15:35:31;3.00;99.90
23120;DHT22;11729;50.836;4.330;2024-01-15T15:37:57;3.10;99.90
23120;DHT22;11729;50.836;4.330;2024-01-15T15:40:22;3.40;99.90
23120;DHT22;11729;50.836;4.330;2024-01-15T15:42:50;3.40;99.90
23120;DHT22;11729;50.836;4.330;2024-01-15T15:45:15;3.30;99.90
23120;DHT22;11729;50.836;4.330;2024-01-15T15:47:41;3.20;99.90